sensor_id;sensor_type;location;lat;lon;timestamp;temperature;humidity
24011;DHT22;12217;50.792;4.372;2023-11-21T00:02:21;11.80;99.90
24011;DHT22;12217;50.792;4.372;2023-11-21T00:04:48;11.80;99.90
24011;DHT22;12217;50.792;4.372;2023-11-21T00:07:14;11.70;99.90
24011;DHT22;12217;50.792;4.372;2023-11-21T00:09:40;11.60;99.90
24011;DHT22;12217;50.792;4.372;2023-11-21T00:12:07;11.60;99.90
24011;DHT22;12217;50.792;4.372;2023-11-21T00:14:36;11.60;99.90
24011;DHT22;12217;50.792;4.372;2023-11-21T00:17:02;11.60;99.90
24011;DHT22;12217;50.792;4.372;2023-11-21T00:19:28;11.60;99.90
24011;DHT22;12217;50.792;4.372;2023-11-21T00:21:53;11.60;99.90
24011;DHT22;12217;50.792;4.372;2023-11-21T00:24:19;11.70;99.90
24011;DHT22;12217;50.792;4.372;2023-11-21T00:26:45;11.80;99.90
24011;DHT22;12217;50.792;4.372;2023-11-21T00:29:10;11.80;99.90
24011;DHT22;12217;50.792;4.372;2023-11-21T00:31:36;11.90;99.90
24011;DHT22;12217;50.792;4.372;2023-11-21T00:34:03;11.90;99.90
24011;DHT22;12217;50.792;4.372;2023-11-21T00:36:31;11.90;99.90
24011;DHT22;12217;50.792;4.372;2023-11-21T00:38:57;11.90;99.90
24011;DHT22;12217;50.792;4.372;2023-11-21T00:41:23;11.80;99.90
24011;DHT22;12217;50.792;4.372;2023-11-21T00:43:49;11.80;99.90
24011;DHT22;12217;50.792;4.372;2023-11-21T00:46:16;11.70;99.90
24011;DHT22;12217;50.792;4.372;2023-11-21T00:48:41;11.90;99.90
24011;DHT22;12217;50.792;4.372;2023-11-21T00:51:07;11.70;99.90
24011;DHT22;12217;50.792;4.372;2023-11-21T00:53:32;11.60;99.90
24011;DHT22;12217;50.792;4.372;2023-11-21T00:55:58;11.60;99.90
24011;DHT22;12217;50.792;4.372;2023-11-21T00:58:24;11.60;99.90
24011;DHT22;12217;50.792;4.372;2023-11-21T01:00:50;11.50;99.90
24011;DHT22;12217;50.792;4.372;2023-11-21T01:03:15;11.50;99.90
24011;DHT22;12217;50.792;4.372;2023-11-21T01:05:41;11.50;99.90
24011;DHT22;12217;50.792;4.372;2023-11-21T01:08:07;11.40;99.90
24011;DHT22;12217;50.792;4.372;2023-11-21T01:10:32;11.40;99.90
24011;DHT22;12217;50.792;4.372;2023-11-21T01:12:59;11.40;99.90
24011;DHT22;12217;50.792;4.372;2023-11-21T01:15:25;11.30;99.90
24011;DHT22;12217;50.792;4.372;2023-11-21T01:17:54;11.20;99.90
24011;DHT22;12217;50.792;4.372;2023-11-21T01:20:19;11.30;99.90
24011;DHT22;12217;50.792;4.372;2023-11-21T01:22:45;11.30;99.90
24011;DHT22;12217;50.792;4.372;2023-11-21T01:25:14;11.40;99.90
24011;DHT22;12217;50.792;4.372;2023-11-21T01:27:42;11.50;99.90
24011;DHT22;12217;50.792;4.372;2023-11-21T01:30:09;11.60;99.90
24011;DHT22;12217;50.792;4.372;2023-11-21T01:32:37;11.60;99.90
24011;DHT22;12217;50.792;4.372;2023-11-21T01:35:03;11.60;99.90
24011;DHT22;12217;50.792;4.372;2023-11-21T01:37:31;11.60;99.90
24011;DHT22;12217;50.792;4.372;2023-11-21T01:39:57;11.60;99.90
24011;DHT22;12217;50.792;4.372;2023-11-21T01:42:22;11.50;99.90
24011;DHT22;12217;50.792;4.372;2023-11-21T01:44:48;11.50;99.90
24011;DHT22;12217;50.792;4.372;2023-11-21T01:47:14;11.60;99.90
24011;DHT22;12217;50.792;4.372;2023-11-21T01:49:43;11.70;99.90
24011;DHT22;12217;50.792;4.372;2023-11-21T01:52:10;11.70;99.90
24011;DHT22;12217;50.792;4.372;2023-11-21T01:54:37;11.60;99.90
24011;DHT22;12217;50.792;4.372;2023-11-21T01:57:04;11.60;99.90
24011;DHT22;12217;50.792;4.372;2023-11-21T01:59:36;11.60;99.90
24011;DHT22;12217;50.792;4.372;2023-11-21T02:02:06;11.70;99.90
24011;DHT22;12217;50.792;4.372;2023-11-21T02:04:33;11.70;99.90
24011;DHT22;12217;50.792;4.372;2023-11-21T02:06:59;11.80;99.90
24011;DHT22;12217;50.792;4.372;2023-11-21T02:09:26;11.80;99.90
24011;DHT22;12217;50.792;4.372;2023-11-21T02:11:55;11.70;99.90
24011;DHT22;12217;50.792;4.372;2023-11-21T02:14:21;11.60;99.90
24011;DHT22;12217;50.792;4.372;2023-11-21T02:16:51;11.60;99.90
24011;DHT22;12217;50.792;4.372;2023-11-21T02:19:21;11.70;99.90
24011;DHT22;12217;50.792;4.372;2023-11-21T02:21:51;11.60;99.90
24011;DHT22;12217;50.792;4.372;2023-11-21T02:24:22;11.50;99.90
24011;DHT22;12217;50.792;4.372;2023-11-21T02:26:48;11.50;99.90
24011;DHT22;12217;50.792;4.372;2023-11-21T02:29:19;11.70;99.90
24011;DHT22;12217;50.792;4.372;2023-11-21T02:31:48;11.60;99.90
24011;DHT22;12217;50.792;4.372;2023-11-21T02:34:17;11.50;99.90
24011;DHT22;12217;50.792;4.372;2023-11-21T02:36:44;11.40;99.90
24011;DHT22;12217;50.792;4.372;2023-11-21T02:39:10;11.40;99.90
24011;DHT22;12217;50.792;4.372;2023-11-21T02:41:37;11.40;99.90
24011;DHT22;12217;50.792;4.372;2023-11-21T02:44:05;11.30;99.90
24011;DHT22;12217;50.792;4.372;2023-11-21T02:46:32;11.20;99.90
24011;DHT22;12217;50.792;4.372;2023-11-21T02:49:05;11.00;99.90
24011;DHT22;12217;50.792;4.372;2023-11-21T02:51:36;11.00;99.90
24011;DHT22;12217;50.792;4.372;2023-11-21T02:54:02;11.10;99.90
24011;DHT22;12217;50.792;4.372;2023-11-21T02:56:32;11.10;99.90
24011;DHT22;12217;50.792;4.372;2023-11-21T02:58:59;11.10;99.90
24011;DHT22;12217;50.792;4.372;2023-11-21T03:01:25;11.10;99.90
24011;DHT22;12217;50.792;4.372;2023-11-21T03:03:51;11.00;99.90
24011;DHT22;12217;50.792;4.372;2023-11-21T03:06:20;11.10;99.90
24011;DHT22;12217;50.792;4.372;2023-11-21T03:08:46;11.00;99.90
24011;DHT22;12217;50.792;4.372;2023-11-21T03:11:12;11.00;99.90
24011;DHT22;12217;50.792;4.372;2023-11-21T03:13:39;11.10;99.90
24011;DHT22;12217;50.792;4.372;2023-11-21T03:16:10;11.00;99.90
24011;DHT22;12217;50.792;4.372;2023-11-21T03:18:36;10.90;99.90
24011;DHT22;12217;50.792;4.372;2023-11-21T03:21:03;11.00;99.90
24011;DHT22;12217;50.792;4.372;2023-11-21T03:23:29;11.10;99.90
24011;DHT22;12217;50.792;4.372;2023-11-21T03:25:54;11.30;99.90
24011;DHT22;12217;50.792;4.372;2023-11-21T03:28:20;11.40;99.90
24011;DHT22;12217;50.792;4.372;2023-11-21T03:30:45;11.40;99.90
24011;DHT22;12217;50.792;4.372;2023-11-21T03:33:11;11.40;99.90
24011;DHT22;12217;50.792;4.372;2023-11-21T03:35:37;11.40;99.90
24011;DHT22;12217;50.792;4.372;2023-11-21T03:38:03;11.40;99.90
24011;DHT22;12217;50.792;4.372;2023-11-21T03:40:29;11.60;99.90
24011;DHT22;12217;50.792;4.372;2023-11-21T03:42:56;11.60;99.90
24011;DHT22;12217;50.792;4.372;2023-11-21T03:45:22;11.60;99.90
24011;DHT22;12217;50.792;4.372;2023-11-21T03:47:48;11.70;99.90
24011;DHT22;12217;50.792;4.372;2023-11-21T03:50:14;11.70;99.90
24011;DHT22;12217;50.792;4.372;2023-11-21T03:52:39;11.70;99.90
24011;DHT22;12217;50.792;4.372;2023-11-21T03:55:05;11.70;99.90
24011;DHT22;12217;50.792;4.372;2023-11-21T03:57:31;11.70;99.90
24011;DHT22;12217;50.792;4.372;2023-11-21T03:59:56;11.70;99.90
24011;DHT22;12217;50.792;4.372;2023-11-21T04:02:22;11.80;99.90
24011;DHT22;12217;50.792;4.372;2023-11-21T04:04:47;11.90;99.90
24011;DHT22;12217;50.792;4.372;2023-11-21T04:07:13;11.80;99.90
24011;DHT22;12217;50.792;4.372;2023-11-21T04:09:39;11.90;99.90
24011;DHT22;12217;50.792;4.372;2023-11-21T04:12:06;11.90;99.90
24011;DHT22;12217;50.792;4.372;2023-11-21T04:14:34;11.80;99.90
24011;DHT22;12217;50.792;4.372;2023-11-21T04:16:59;12.00;99.90
24011;DHT22;12217;50.792;4.372;2023-11-21T04:19:25;12.00;99.90
24011;DHT22;12217;50.792;4.372;2023-11-21T04:21:51;11.90;99.90
24011;DHT22;12217;50.792;4.372;2023-11-21T04:24:17;11.80;99.90
24011;DHT22;12217;50.792;4.372;2023-11-21T04:26:43;11.90;99.90
24011;DHT22;12217;50.792;4.372;2023-11-21T04:29:09;11.90;99.90
24011;DHT22;12217;50.792;4.372;2023-11-21T04:31:34;11.90;99.90
24011;DHT22;12217;50.792;4.372;2023-11-21T04:34:00;11.90;99.90
24011;DHT22;12217;50.792;4.372;2023-11-21T04:36:26;11.80;99.90
24011;DHT22;12217;50.792;4.372;2023-11-21T04:38:52;11.80;99.90
24011;DHT22;12217;50.792;4.372;2023-11-21T04:41:17;11.90;99.90
24011;DHT22;12217;50.792;4.372;2023-11-21T04:43:43;12.10;99.90
24011;DHT22;12217;50.792;4.372;2023-11-21T04:46:09;12.00;99.90
24011;DHT22;12217;50.792;4.372;2023-11-21T04:48:34;12.00;99.90
24011;DHT22;12217;50.792;4.372;2023-11-21T04:51:00;12.00;99.90
24011;DHT22;12217;50.792;4.372;2023-11-21T04:53:26;12.00;99.90
24011;DHT22;12217;50.792;4.372;2023-11-21T04:55:51;12.10;99.90
24011;DHT22;12217;50.792;4.372;2023-11-21T04:58:17;12.00;99.90
24011;DHT22;12217;50.792;4.372;2023-11-21T05:00:43;11.90;99.90
24011;DHT22;12217;50.792;4.372;2023-11-21T05:03:09;11.90;99.90
24011;DHT22;12217;50.792;4.372;2023-11-21T05:05:35;11.90;99.90
24011;DHT22;12217;50.792;4.372;2023-11-21T05:08:01;12.00;99.90
24011;DHT22;12217;50.792;4.372;2023-11-21T05:10:27;12.00;99.90
24011;DHT22;12217;50.792;4.372;2023-11-21T05:12:52;11.80;99.90
24011;DHT22;12217;50.792;4.372;2023-11-21T05:15:18;11.80;99.90
24011;DHT22;12217;50.792;4.372;2023-11-21T05:17:44;11.90;99.90
24011;DHT22;12217;50.792;4.372;2023-11-21T05:20:12;11.80;99.90
24011;DHT22;12217;50.792;4.372;2023-11-21T05:22:39;12.00;99.90
24011;DHT22;12217;50.792;4.372;2023-11-21T05:25:06;11.90;99.90
24011;DHT22;12217;50.792;4.372;2023-11-21T05:27:33;11.80;99.90
24011;DHT22;12217;50.792;4.372;2023-11-21T05:30:03;11.80;99.90
24011;DHT22;12217;50.792;4.372;2023-11-21T05:32:32;11.50;99.90
24011;DHT22;12217;50.792;4.372;2023-11-21T05:34:58;11.60;99.90
24011;DHT22;12217;50.792;4.372;2023-11-21T05:37:24;11.70;99.90
24011;DHT22;12217;50.792;4.372;2023-11-21T05:39:53;11.70;99.90
24011;DHT22;12217;50.792;4.372;2023-11-21T05:42:18;11.80;99.90
24011;DHT22;12217;50.792;4.372;2023-11-21T05:44:44;11.80;99.90
24011;DHT22;12217;50.792;4.372;2023-11-21T05:47:10;11.80;99.90
24011;DHT22;12217;50.792;4.372;2023-11-21T05:49:36;11.80;99.90
24011;DHT22;12217;50.792;4.372;2023-11-21T05:52:02;11.80;99.90
24011;DHT22;12217;50.792;4.372;2023-11-21T05:54:28;11.80;99.90
24011;DHT22;12217;50.792;4.372;2023-11-21T05:56:54;11.90;99.90
24011;DHT22;12217;50.792;4.372;2023-11-21T05:59:19;11.90;99.90
24011;DHT22;12217;50.792;4.372;2023-11-21T06:01:45;12.00;99.90
24011;DHT22;12217;50.792;4.372;2023-11-21T06:04:13;12.10;99.90
24011;DHT22;12217;50.792;4.372;2023-11-21T06:06:39;12.00;99.90
24011;DHT22;12217;50.792;4.372;2023-11-21T06:09:04;12.00;99.90
24011;DHT22;12217;50.792;4.372;2023-11-21T06:11:31;12.00;99.90
24011;DHT22;12217;50.792;4.372;2023-11-21T06:13:57;12.00;99.90
24011;DHT22;12217;50.792;4.372;2023-11-21T06:16:23;12.00;99.90
24011;DHT22;12217;50.792;4.372;2023-11-21T06:18:49;12.00;99.90
24011;DHT22;12217;50.792;4.372;2023-11-21T06:21:15;11.90;99.90
24011;DHT22;12217;50.792;4.372;2023-11-21T06:23:42;11.80;99.90
24011;DHT22;12217;50.792;4.372;2023-11-21T06:26:08;11.80;99.90
24011;DHT22;12217;50.792;4.372;2023-11-21T06:28:34;11.70;99.90
24011;DHT22;12217;50.792;4.372;2023-11-21T06:31:01;11.80;99.90
24011;DHT22;12217;50.792;4.372;2023-11-21T06:33:33;11.90;99.90
24011;DHT22;12217;50.792;4.372;2023-11-21T06:35:59;11.90;99.90
24011;DHT22;12217;50.792;4.372;2023-11-21T06:38:28;11.90;99.90
24011;DHT22;12217;50.792;4.372;2023-11-21T06:40:56;12.00;99.90
24011;DHT22;12217;50.792;4.372;2023-11-21T06:43:22;11.90;99.90
24011;DHT22;12217;50.792;4.372;2023-11-21T06:45:47;11.90;99.90
24011;DHT22;12217;50.792;4.372;2023-11-21T06:48:13;12.00;99.90
24011;DHT22;12217;50.792;4.372;2023-11-21T06:50:39;12.10;99.90
24011;DHT22;12217;50.792;4.372;2023-11-21T06:53:05;12.10;99.90
24011;DHT22;12217;50.792;4.372;2023-11-21T06:55:32;12.10;99.90
24011;DHT22;12217;50.792;4.372;2023-11-21T06:57:58;12.10;99.90
24011;DHT22;12217;50.792;4.372;2023-11-21T07:00:25;12.00;99.90
24011;DHT22;12217;50.792;4.372;2023-11-21T07:02:53;11.90;99.90
24011;DHT22;12217;50.792;4.372;2023-11-21T07:05:21;12.00;99.90
24011;DHT22;12217;50.792;4.372;2023-11-21T07:07:47;12.00;99.90
24011;DHT22;12217;50.792;4.372;2023-11-21T07:10:13;12.00;99.90
24011;DHT22;12217;50.792;4.372;2023-11-21T07:12:39;12.00;99.90
24011;DHT22;12217;50.792;4.372;2023-11-21T07:15:06;12.00;99.90
24011;DHT22;12217;50.792;4.372;2023-11-21T07:17:35;12.10;99.90
24011;DHT22;12217;50.792;4.372;2023-11-21T07:20:03;12.00;99.90
24011;DHT22;12217;50.792;4.372;2023-11-21T07:22:29;11.90;99.90
24011;DHT22;12217;50.792;4.372;2023-11-21T07:24:55;11.70;99.90
24011;DHT22;12217;50.792;4.372;2023-11-21T07:27:22;11.60;99.90
24011;DHT22;12217;50.792;4.372;2023-11-21T07:29:48;11.40;99.90
24011;DHT22;12217;50.792;4.372;2023-11-21T07:32:14;11.50;99.90
24011;DHT22;12217;50.792;4.372;2023-11-21T07:34:40;11.60;99.90
24011;DHT22;12217;50.792;4.372;2023-11-21T07:37:07;11.60;99.90
24011;DHT22;12217;50.792;4.372;2023-11-21T07:39:34;11.60;99.90
24011;DHT22;12217;50.792;4.372;2023-11-21T07:42:00;11.80;99.90
24011;DHT22;12217;50.792;4.372;2023-11-21T07:44:28;11.80;99.90
24011;DHT22;12217;50.792;4.372;2023-11-21T07:46:54;11.90;99.90
24011;DHT22;12217;50.792;4.372;2023-11-21T07:49:25;12.00;99.90
24011;DHT22;12217;50.792;4.372;2023-11-21T07:51:52;12.10;99.90
24011;DHT22;12217;50.792;4.372;2023-11-21T07:54:18;12.10;99.90
24011;DHT22;12217;50.792;4.372;2023-11-21T07:56:43;12.00;99.90
24011;DHT22;12217;50.792;4.372;2023-11-21T07:59:09;12.00;99.90
24011;DHT22;12217;50.792;4.372;2023-11-21T08:01:35;12.00;99.90
24011;DHT22;12217;50.792;4.372;2023-11-21T08:04:00;12.00;99.90
24011;DHT22;12217;50.792;4.372;2023-11-21T08:06:29;12.00;99.90
24011;DHT22;12217;50.792;4.372;2023-11-21T08:08:56;12.00;99.90
24011;DHT22;12217;50.792;4.372;2023-11-21T08:11:22;11.80;99.90
24011;DHT22;12217;50.792;4.372;2023-11-21T08:13:47;11.80;99.90
24011;DHT22;12217;50.792;4.372;2023-11-21T08:16:13;11.60;99.90
24011;DHT22;12217;50.792;4.372;2023-11-21T08:18:39;11.50;99.90
24011;DHT22;12217;50.792;4.372;2023-11-21T08:21:05;11.70;99.90
24011;DHT22;12217;50.792;4.372;2023-11-21T08:23:31;11.60;99.90
24011;DHT22;12217;50.792;4.372;2023-11-21T08:25:57;11.80;99.90
24011;DHT22;12217;50.792;4.372;2023-11-21T08:28:22;11.90;99.90
24011;DHT22;12217;50.792;4.372;2023-11-21T08:30:51;12.00;99.90
24011;DHT22;12217;50.792;4.372;2023-11-21T08:33:18;12.10;99.90
24011;DHT22;12217;50.792;4.372;2023-11-21T08:35:44;12.10;99.90
24011;DHT22;12217;50.792;4.372;2023-11-21T08:38:09;12.00;99.90
24011;DHT22;12217;50.792;4.372;2023-11-21T08:40:36;12.10;99.90
24011;DHT22;12217;50.792;4.372;2023-11-21T08:43:01;12.10;99.90
24011;DHT22;12217;50.792;4.372;2023-11-21T08:45:30;12.10;99.90
24011;DHT22;12217;50.792;4.372;2023-11-21T08:47:55;12.10;99.90
24011;DHT22;12217;50.792;4.372;2023-11-21T08:50:21;12.10;99.90
24011;DHT22;12217;50.792;4.372;2023-11-21T08:52:47;12.20;99.90
24011;DHT22;12217;50.792;4.372;2023-11-21T08:55:13;12.30;99.90
24011;DHT22;12217;50.792;4.372;2023-11-21T08:57:39;12.30;99.90
24011;DHT22;12217;50.792;4.372;2023-11-21T09:00:07;12.30;99.90
24011;DHT22;12217;50.792;4.372;2023-11-21T09:02:41;12.30;99.90
24011;DHT22;12217;50.792;4.372;2023-11-21T09:05:08;12.30;99.90
24011;DHT22;12217;50.792;4.372;2023-11-21T09:07:35;12.30;99.90
24011;DHT22;12217;50.792;4.372;2023-11-21T09:10:01;12.20;99.90
24011;DHT22;12217;50.792;4.372;2023-11-21T09:12:27;12.10;99.90
24011;DHT22;12217;50.792;4.372;2023-11-21T09:14:53;12.00;99.90
24011;DHT22;12217;50.792;4.372;2023-11-21T09:17:18;11.90;99.90
24011;DHT22;12217;50.792;4.372;2023-11-21T09:19:44;11.90;99.90
24011;DHT22;12217;50.792;4.372;2023-11-21T09:22:15;11.80;99.90
24011;DHT22;12217;50.792;4.372;2023-11-21T09:24:40;11.90;99.90
24011;DHT22;12217;50.792;4.372;2023-11-21T09:27:06;12.00;99.90
24011;DHT22;12217;50.792;4.372;2023-11-21T09:29:32;12.00;99.90
24011;DHT22;12217;50.792;4.372;2023-11-21T09:31:58;12.10;99.90
24011;DHT22;12217;50.792;4.372;2023-11-21T09:34:25;12.00;99.90
24011;DHT22;12217;50.792;4.372;2023-11-21T09:36:51;12.30;99.90
24011;DHT22;12217;50.792;4.372;2023-11-21T09:39:17;12.30;99.90
24011;DHT22;12217;50.792;4.372;2023-11-21T09:42:12;12.10;99.90
24011;DHT22;12217;50.792;4.372;2023-11-21T09:47:32;12.10;99.90
24011;DHT22;12217;50.792;4.372;2023-11-21T09:50:01;12.20;99.90
24011;DHT22;12217;50.792;4.372;2023-11-21T09:52:28;12.30;99.90
24011;DHT22;12217;50.792;4.372;2023-11-21T09:54:55;12.30;99.90
24011;DHT22;12217;50.792;4.372;2023-11-21T09:57:24;12.30;99.90
24011;DHT22;12217;50.792;4.372;2023-11-21T09:59:54;12.40;99.90
24011;DHT22;12217;50.792;4.372;2023-11-21T10:02:26;12.40;99.90
24011;DHT22;12217;50.792;4.372;2023-11-21T10:04:53;12.40;99.90
24011;DHT22;12217;50.792;4.372;2023-11-21T10:07:20;12.40;99.90
24011;DHT22;12217;50.792;4.372;2023-11-21T10:09:47;12.40;99.90
24011;DHT22;12217;50.792;4.372;2023-11-21T10:12:15;12.40;99.90
24011;DHT22;12217;50.792;4.372;2023-11-21T10:14:42;12.30;99.90
24011;DHT22;12217;50.792;4.372;2023-11-21T10:17:10;12.40;99.90
24011;DHT22;12217;50.792;4.372;2023-11-21T10:19:39;12.60;99.90
24011;DHT22;12217;50.792;4.372;2023-11-21T10:22:05;12.50;99.90
24011;DHT22;12217;50.792;4.372;2023-11-21T10:24:32;12.50;99.90
24011;DHT22;12217;50.792;4.372;2023-11-21T10:26:58;12.50;99.90
24011;DHT22;12217;50.792;4.372;2023-11-21T10:29:28;12.50;99.90
24011;DHT22;12217;50.792;4.372;2023-11-21T10:31:54;12.50;99.90
24011;DHT22;12217;50.792;4.372;2023-11-21T10:34:23;12.50;99.90
24011;DHT22;12217;50.792;4.372;2023-11-21T10:36:48;12.50;99.90
24011;DHT22;12217;50.792;4.372;2023-11-21T10:39:17;12.60;99.90
24011;DHT22;12217;50.792;4.372;2023-11-21T10:41:48;12.60;99.90
24011;DHT22;12217;50.792;4.372;2023-11-21T10:44:14;12.70;99.90
24011;DHT22;12217;50.792;4.372;2023-11-21T10:46:46;12.50;99.90
24011;DHT22;12217;50.792;4.372;2023-11-21T10:49:22;12.60;99.90
24011;DHT22;12217;50.792;4.372;2023-11-21T10:51:50;12.50;99.90
24011;DHT22;12217;50.792;4.372;2023-11-21T10:54:22;12.70;99.90
24011;DHT22;12217;50.792;4.372;2023-11-21T10:56:53;12.70;99.90
24011;DHT22;12217;50.792;4.372;2023-11-21T10:59:22;12.60;99.90
24011;DHT22;12217;50.792;4.372;2023-11-21T11:01:51;12.70;99.90
24011;DHT22;12217;50.792;4.372;2023-11-21T11:04:19;12.80;99.90
24011;DHT22;12217;50.792;4.372;2023-11-21T11:06:49;13.00;99.90
24011;DHT22;12217;50.792;4.372;2023-11-21T11:09:17;13.00;99.90
24011;DHT22;12217;50.792;4.372;2023-11-21T11:11:43;13.10;99.90
24011;DHT22;12217;50.792;4.372;2023-11-21T11:14:13;13.10;99.90
24011;DHT22;12217;50.792;4.372;2023-11-21T11:16:39;13.10;99.90
24011;DHT22;12217;50.792;4.372;2023-11-21T11:19:11;13.20;99.90
24011;DHT22;12217;50.792;4.372;2023-11-21T11:21:58;13.10;99.90
24011;DHT22;12217;50.792;4.372;2023-11-21T11:36:18;13.40;99.90
24011;DHT22;12217;50.792;4.372;2023-11-21T11:38:47;13.40;99.90
24011;DHT22;12217;50.792;4.372;2023-11-21T11:41:25;13.40;99.90
24011;DHT22;12217;50.792;4.372;2023-11-21T11:43:53;13.40;99.90
24011;DHT22;12217;50.792;4.372;2023-11-21T11:46:18;13.40;99.90
24011;DHT22;12217;50.792;4.372;2023-11-21T11:48:47;13.40;99.90
24011;DHT22;12217;50.792;4.372;2023-11-21T11:51:15;13.40;99.90
24011;DHT22;12217;50.792;4.372;2023-11-21T11:53:44;13.20;99.90
24011;DHT22;12217;50.792;4.372;2023-11-21T11:56:29;13.30;99.90
24011;DHT22;12217;50.792;4.372;2023-11-21T11:58:57;13.20;99.90
24011;DHT22;12217;50.792;4.372;2023-11-21T12:01:25;13.20;99.90
24011;DHT22;12217;50.792;4.372;2023-11-21T12:07:05;13.10;99.90
24011;DHT22;12217;50.792;4.372;2023-11-21T12:09:31;13.10;99.90
24011;DHT22;12217;50.792;4.372;2023-11-21T12:11:57;13.10;99.90
24011;DHT22;12217;50.792;4.372;2023-11-21T12:14:23;13.10;99.90
24011;DHT22;12217;50.792;4.372;2023-11-21T12:16:49;13.20;99.90
24011;DHT22;12217;50.792;4.372;2023-11-21T12:19:14;13.30;99.90
24011;DHT22;12217;50.792;4.372;2023-11-21T12:21:40;13.30;99.90
24011;DHT22;12217;50.792;4.372;2023-11-21T12:24:07;13.20;99.90
24011;DHT22;12217;50.792;4.372;2023-11-21T12:26:39;13.20;99.90
24011;DHT22;12217;50.792;4.372;2023-11-21T12:29:05;13.20;99.90
24011;DHT22;12217;50.792;4.372;2023-11-21T12:31:33;13.10;99.90
24011;DHT22;12217;50.792;4.372;2023-11-21T12:34:00;13.10;99.90
24011;DHT22;12217;50.792;4.372;2023-11-21T12:36:26;13.10;99.90
24011;DHT22;12217;50.792;4.372;2023-11-21T12:38:52;13.10;99.90
24011;DHT22;12217;50.792;4.372;2023-11-21T12:41:17;13.10;99.90
24011;DHT22;12217;50.792;4.372;2023-11-21T12:43:43;13.10;99.90
24011;DHT22;12217;50.792;4.372;2023-11-21T12:46:13;13.10;99.90
24011;DHT22;12217;50.792;4.372;2023-11-21T12:48:44;13.10;99.90
24011;DHT22;12217;50.792;4.372;2023-11-21T12:51:11;13.10;99.90
24011;DHT22;12217;50.792;4.372;2023-11-21T12:53:41;13.20;99.90
24011;DHT22;12217;50.792;4.372;2023-11-21T12:56:10;13.10;99.90
24011;DHT22;12217;50.792;4.372;2023-11-21T12:58:37;13.20;99.90
24011;DHT22;12217;50.792;4.372;2023-11-21T13:01:05;13.10;99.90
24011;DHT22;12217;50.792;4.372;2023-11-21T13:03:35;13.10;99.90
24011;DHT22;12217;50.792;4.372;2023-11-21T13:06:01;13.20;99.90
24011;DHT22;12217;50.792;4.372;2023-11-21T13:08:27;13.20;99.90
24011;DHT22;12217;50.792;4.372;2023-11-21T13:10:56;13.00;99.90
24011;DHT22;12217;50.792;4.372;2023-11-21T13:13:23;13.10;99.90
24011;DHT22;12217;50.792;4.372;2023-11-21T13:15:52;13.20;99.90
24011;DHT22;12217;50.792;4.372;2023-11-21T13:18:18;13.00;99.90
24011;DHT22;12217;50.792;4.372;2023-11-21T13:20:44;12.90;99.90
24011;DHT22;12217;50.792;4.372;2023-11-21T13:23:12;13.00;99.90
24011;DHT22;12217;50.792;4.372;2023-11-21T13:25:38;13.00;99.90
24011;DHT22;12217;50.792;4.372;2023-11-21T13:28:06;13.00;99.90
24011;DHT22;12217;50.792;4.372;2023-11-21T13:30:32;13.00;99.90
24011;DHT22;12217;50.792;4.372;2023-11-21T13:33:04;13.10;99.90
24011;DHT22;12217;50.792;4.372;2023-11-21T13:35:34;13.20;99.90
24011;DHT22;12217;50.792;4.372;2023-11-21T13:38:11;13.00;99.90
24011;DHT22;12217;50.792;4.372;2023-11-21T13:40:38;13.10;99.90
24011;DHT22;12217;50.792;4.372;2023-11-21T13:43:13;13.00;99.90
24011;DHT22;12217;50.792;4.372;2023-11-21T13:45:40;12.90;99.90
24011;DHT22;12217;50.792;4.372;2023-11-21T13:48:06;13.00;99.90
24011;DHT22;12217;50.792;4.372;2023-11-21T13:50:36;13.10;99.90
24011;DHT22;12217;50.792;4.372;2023-11-21T13:53:03;13.10;99.90
24011;DHT22;12217;50.792;4.372;2023-11-21T13:55:36;13.20;99.90
24011;DHT22;12217;50.792;4.372;2023-11-21T13:58:02;13.10;99.90
24011;DHT22;12217;50.792;4.372;2023-11-21T14:00:29;13.20;99.90
24011;DHT22;12217;50.792;4.372;2023-11-21T14:03:11;13.20;99.90
24011;DHT22;12217;50.792;4.372;2023-11-21T14:05:47;13.30;99.90
24011;DHT22;12217;50.792;4.372;2023-11-21T14:08:19;13.30;99.90
24011;DHT22;12217;50.792;4.372;2023-11-21T14:10:50;13.10;99.90
24011;DHT22;12217;50.792;4.372;2023-11-21T14:13:26;13.10;99.90
24011;DHT22;12217;50.792;4.372;2023-11-21T14:15:52;13.10;99.90
24011;DHT22;12217;50.792;4.372;2023-11-21T14:18:24;13.10;99.90
24011;DHT22;12217;50.792;4.372;2023-11-21T14:20:59;12.90;99.90
24011;DHT22;12217;50.792;4.372;2023-11-21T14:23:25;12.90;99.90
24011;DHT22;12217;50.792;4.372;2023-11-21T14:25:51;13.00;99.90
24011;DHT22;12217;50.792;4.372;2023-11-21T14:28:17;13.00;99.90
24011;DHT22;12217;50.792;4.372;2023-11-21T14:30:45;13.10;99.90
24011;DHT22;12217;50.792;4.372;2023-11-21T14:33:12;13.10;99.90
24011;DHT22;12217;50.792;4.372;2023-11-21T14:35:37;13.00;99.90
24011;DHT22;12217;50.792;4.372;2023-11-21T14:38:03;13.10;99.90
24011;DHT22;12217;50.792;4.372;2023-11-21T14:40:33;13.10;99.90
24011;DHT22;12217;50.792;4.372;2023-11-21T14:43:01;13.20;99.90
24011;DHT22;12217;50.792;4.372;2023-11-21T14:45:27;13.20;99.90
24011;DHT22;12217;50.792;4.372;2023-11-21T14:47:54;13.00;99.90
24011;DHT22;12217;50.792;4.372;2023-11-21T14:50:34;13.00;99.90
24011;DHT22;12217;50.792;4.372;2023-11-21T14:53:19;13.00;99.90
24011;DHT22;12217;50.792;4.372;2023-11-21T14:56:05;13.10;99.90
24011;DHT22;12217;50.792;4.372;2023-11-21T14:58:33;13.10;99.90
24011;DHT22;12217;50.792;4.372;2023-11-21T15:00:59;13.10;99.90
24011;DHT22;12217;50.792;4.372;2023-11-21T15:03:29;13.00;99.90
24011;DHT22;12217;50.792;4.372;2023-11-21T15:06:02;12.80;99.90
24011;DHT22;12217;50.792;4.372;2023-11-21T15:08:51;12.60;99.90
24011;DHT22;12217;50.792;4.372;2023-11-21T15:11:37;12.60;99.90
24011;DHT22;12217;50.792;4.372;2023-11-21T15:14:04;12.60;99.90
24011;DHT22;12217;50.792;4.372;2023-11-21T15:16:34;12.60;99.90
24011;DHT22;12217;50.792;4.372;2023-11-21T15:19:04;12.70;99.90
24011;DHT22;12217;50.792;4.372;2023-11-21T15:21:31;12.70;99.90
24011;DHT22;12217;50.792;4.372;2023-11-21T15:23:58;12.70;99.90
24011;DHT22;12217;50.792;4.372;2023-11-21T15:26:23;12.60;99.90
24011;DHT22;12217;50.792;4.372;2023-11-21T15:28:49;12.60;99.90
24011;DHT22;12217;50.792;4.372;2023-11-21T15:31:14;12.60;99.90
24011;DHT22;12217;50.792;4.372;2023-11-21T15:33:42;12.50;99.90
24011;DHT22;12217;50.792;4.372;2023-11-21T15:36:08;12.50;99.90
24011;DHT22;12217;50.792;4.372;2023-11-21T15:38:36;12.60;99.90
24011;DHT22;12217;50.792;4.372;2023-11-21T15:41:03;12.60;99.90
24011;DHT22;12217;50.792;4.372;2023-11-21T15:43:29;12.70;99.90
24011;DHT22;12217;50.792;4.372;2023-11-21T15:45:54;12.70;99.90
24011;DHT22;12217;50.792;4.372;2023-11-21T15:48:21;12.60;99.90
24011;DHT22;12217;50.792;4.372;2023-11-21T15:50:46;12.70;99.90